Flight Track Log - Related Links

Times and Time Zones

All times are in EDT time to prevent confusion due to time zone crossing. See the GJS6221 flight status page for this flight to view local times or setup timezone preferences in your user account.

Time Position Orientation Groundspeed Altitude Reporting Facility
EDT Latitude Longitude Course Direction KTS MPH feet Rate Location/Type
Tue 03:58:59 PM 40.8167 -73.9167 225° Southwest 183 211 2,000  Level New York TRACON
Tue 03:59:59 PM 40.8333 -73.9667 294° West 249 287 4,200 2,400 Climbing New York TRACON
Tue 04:00:59 PM 40.7833 -74.0333 225° Southwest 270 311 6,800 1,850 Climbing New York TRACON
Tue 04:01:59 PM 40.7333 -74.1000 225° Southwest 272 313 7,900 1,850 Climbing New York TRACON
Tue 04:02:59 PM 40.6500 -74.1333 197° South 301 346 10,500 2,550 Climbing New York TRACON
Tue 04:03:59 PM 40.5667 -74.1500 189° South 312 359 13,000 1,950 Climbing New York TRACON
Tue 04:04:00 PM 40.2114 -74.4202 225° Southwest  Level Estimated
Tue 04:04:59 PM 40.4667 -74.1667 187° South 358 412 14,400  Level New York TRACON
Tue 04:06:48 PM 40.2806 -74.2017 188° South 378 435 17,000 1,493 Climbing New York Center
Tue 04:08:20 PM 40.1203 -74.2269 187° South 406 467 19,400 1,725 Climbing Washington Center
Tue 04:09:21 PM 40.0081 -74.2533 190° South 412 474 21,400 1,636 Climbing Washington Center
Tue 04:10:21 PM 39.9172 -74.3364 215° Southwest 395 455 22,700 1,500 Climbing Washington Center
Tue 04:11:21 PM 39.8181 -74.4003 206° Southwest 400 460 24,400 1,600 Climbing Washington Center
Tue 04:12:21 PM 39.7167 -74.4694 208° Southwest 406 467 25,900 1,250 Climbing Washington Center
Tue 04:13:21 PM 39.6069 -74.5519 210° Southwest 417 480 26,900 992 Climbing Washington Center
Tue 04:14:22 PM 39.5014 -74.6342 211° Southwest 430 495 27,900 1,008 Climbing Washington Center
Tue 04:15:20 PM 39.3936 -74.7161 210° Southwest 440 506 28,900 1,008 Climbing Washington Center
Tue 04:16:21 PM 39.2836 -74.8033 212° Southwest 452 520 29,900 934 Climbing Washington Center
Tue 04:17:22 PM 39.1758 -74.8875 211° Southwest 462 532 30,800 843 Climbing Washington Center
Tue 04:18:22 PM 39.0617 -74.9714 210° Southwest 468 539 31,600 915 Climbing Washington Center
Tue 04:19:20 PM 38.9456 -75.0606 211° Southwest 474 545 32,600 1,017 Climbing Washington Center
Tue 04:20:20 PM 38.8292 -75.1467 210° Southwest 479 551 33,600 942 Climbing Washington Center
Tue 04:21:21 PM 38.7147 -75.2350 211° Southwest 484 557 34,500 934 Climbing Washington Center
Tue 04:22:22 PM 38.6003 -75.3208 210° Southwest 484 557 35,500 885 Climbing Washington Center
Tue 04:23:23 PM 38.4858 -75.4114 212° Southwest 484 557 36,300 712 Climbing Washington Center
Tue 04:24:20 PM 38.3711 -75.4911 209° Southwest 484 557 36,900 610 Climbing Washington Center
Tue 04:25:21 PM 38.2628 -75.5892 215° Southwest 484 557 37,500 496 Climbing Washington Center
Tue 04:26:21 PM 38.1689 -75.6842 219° Southwest 489 563 37,900 248 Climbing Washington Center
Tue 04:27:22 PM 38.0644 -75.7894 218° Southwest 489 563 38,000 50 Climbing Washington Center
Tue 04:28:20 PM 37.9600 -75.8972 219° Southwest 489 563 38,000  Level Washington Center
Tue 04:29:20 PM 37.8533 -76.0019 218° Southwest 489 563 38,000  Level Washington Center
Tue 04:30:21 PM 37.7425 -76.1222 221° Southwest 489 563 38,000  Level Washington Center
Tue 04:31:21 PM 37.6461 -76.2081 215° Southwest 489 563 38,000  Level Washington Center
Tue 04:32:22 PM 37.5392 -76.3119 218° Southwest 489 563 38,000  Level Washington Center
Tue 04:33:23 PM 37.4342 -76.4183 219° Southwest 489 563 38,000  Level Washington Center
Tue 04:34:21 PM 37.3228 -76.5242 217° Southwest 494 568 38,000  Level Washington Center
Tue 04:35:22 PM 37.2133 -76.6325 218° Southwest 494 568 38,000  Level Washington Center
Tue 04:36:22 PM 37.1061 -76.7378 218° Southwest 494 568 38,000  Level Washington Center
Tue 04:37:20 PM 36.9986 -76.8428 218° Southwest 494 568 38,000  Level Washington Center
Tue 04:38:20 PM 36.8911 -76.9475 218° Southwest 494 568 38,000  Level Washington Center
Tue 04:39:21 PM 36.7814 -77.0519 217° Southwest 494 568 38,000  Level Washington Center
Tue 04:40:21 PM 36.6736 -77.1561 218° Southwest 494 568 38,000  Level Washington Center
Tue 04:41:22 PM 36.5658 -77.2600 218° Southwest 494 568 38,000  Level Washington Center
Tue 04:42:20 PM 36.4558 -77.3661 218° Southwest 494 568 38,000  Level Washington Center
Tue 04:43:21 PM 36.3394 -77.4769 218° Southwest 494 568 38,000  Level Washington Center
Tue 04:44:22 PM 36.2292 -77.5825 218° Southwest 494 568 38,000  Level Washington Center
Tue 04:45:22 PM 36.1189 -77.6850 217° Southwest 494 568 38,000  Level Washington Center
Tue 04:46:20 PM 36.0108 -77.7900 218° Southwest 494 568 38,000  Level Washington Center
Tue 04:47:21 PM 35.9025 -77.8894 217° Southwest 494 568 38,000  Level Washington Center
Tue 04:48:22 PM 35.7961 -77.9889 217° Southwest 494 568 38,000  Level Washington Center
Tue 04:49:22 PM 35.6856 -78.0878 216° Southwest 494 568 38,000  Level Washington Center
Tue 04:50:22 PM 35.5792 -78.1842 216° Southwest 494 568 38,000  Level Washington Center
Tue 04:51:20 PM 35.4706 -78.2828 216° Southwest 494 568 38,000  Level Washington Center
Tue 04:52:21 PM 35.3578 -78.3833 216° Southwest 494 568 38,000  Level Washington Center
Tue 04:53:22 PM 35.2489 -78.4864 218° Southwest 499 574 38,000  Level Washington Center
Tue 04:54:22 PM 35.1400 -78.5892 218° Southwest 494 568 38,000  Level Washington Center
Tue 04:55:20 PM 35.0289 -78.6917 217° Southwest 494 568 38,000  Level Washington Center
Tue 04:57:05 PM 34.8442 -78.8556 216° Southwest 484 557 38,000  Level Jacksonville Center
Tue 04:58:05 PM 34.7325 -78.9569 217° Southwest 495 570 38,000  Level Jacksonville Center
Tue 04:59:05 PM 34.6208 -79.0553 216° Southwest 500 575 38,000  Level Jacksonville Center
Tue 05:00:05 PM 34.5014 -79.1714 219° Southwest 500 575 38,000  Level Jacksonville Center
Tue 05:01:05 PM 34.3894 -79.2694 216° Southwest 500 575 38,000  Level Jacksonville Center
Tue 05:02:05 PM 34.2817 -79.3642 216° Southwest 494 568 38,000  Level Jacksonville Center
Tue 05:03:05 PM 34.1756 -79.4539 215° Southwest 486 559 38,000  Level Jacksonville Center
Tue 05:04:05 PM 34.0678 -79.5558 218° Southwest 486 559 38,000 -650 Level Jacksonville Center
Tue 05:05:05 PM 33.9553 -79.6503 215° Southwest 491 565 36,700 -1,400 Descending Jacksonville Center
Tue 05:06:05 PM 33.8453 -79.7469 216° Southwest 491 565 35,200 -1,500 Descending Jacksonville Center
Tue 05:07:05 PM 33.7369 -79.8408 216° Southwest 491 565 33,700 -1,500 Descending Jacksonville Center
Tue 05:08:05 PM 33.6267 -79.9392 217° Southwest 491 565 32,200 -1,650 Descending Jacksonville Center
Tue 05:09:05 PM 33.5161 -80.0353 216° Southwest 491 565 30,400 -1,900 Descending Jacksonville Center
Tue 05:10:05 PM 33.4036 -80.1358 217° Southwest 491 565 28,400 -1,950 Descending Jacksonville Center
Tue 05:11:05 PM 33.2928 -80.2286 215° Southwest 491 565 26,500 -1,800 Descending Jacksonville Center
Tue 05:12:05 PM 33.1842 -80.3189 215° Southwest 491 565 24,800 -1,750 Descending Jacksonville Center
Tue 05:13:05 PM 33.0836 -80.4083 217° Southwest 485 558 23,000 -1,650 Descending Jacksonville Center
Tue 05:14:05 PM 32.9747 -80.5031 216° Southwest 479 551 21,500 -1,850 Descending Jacksonville Center
Tue 05:15:05 PM 32.8761 -80.5850 215° Southwest 465 535 19,300 -2,300 Descending Jacksonville Center
Tue 05:16:05 PM 32.7944 -80.6833 225° Southwest 445 512 16,900 -2,450 Descending Jacksonville Center
Tue 05:17:05 PM 32.7231 -80.7886 231° Southwest 418 481 14,400 -2,500 Descending Jacksonville Center
Tue 05:18:05 PM 32.6558 -80.8867 231° Southwest 404 465 11,900 -1,750 Descending Jacksonville Center
Tue 05:19:05 PM 32.5925 -80.9817 232° Southwest 378 435 10,900 -500 Descending Jacksonville Center
Tue 05:20:05 PM 32.5014 -81.0278 203° Southwest 352 405 10,900 -100 Level Jacksonville Center
Tue 05:21:05 PM 32.4314 -81.0836 214° Southwest 343 395 10,700 -800 Descending Jacksonville Center
Tue 05:22:05 PM 32.3739 -81.1608 229° Southwest 299 344 9,300 -1,600 Descending Jacksonville Center
Tue 05:23:05 PM 32.3308 -81.2256 232° Southwest 281 323 7,500 -1,800 Descending Jacksonville Center
Tue 05:24:05 PM 32.2733 -81.2856 221° Southwest 275 316 5,700 -1,600 Descending Jacksonville Center
Tue 05:25:05 PM 32.2047 -81.3164 201° Southwest 258 297 4,300 -1,550 Descending Jacksonville Center
Tue 05:26:05 PM 32.1550 -81.3344 197° South 218 251 2,600 -1,700 Descending Jacksonville Center
Tue 05:28:00 PM 32.1276 -81.2021 104° East  Level Estimated
Tue 05:35:00 PM 32.1276 -81.2021 16° North  Level Estimated
Tue 05:36:00 PM 32.1276 -81.2021 16° North  Level Estimated
Tue 05:37:00 PM 32.1276 -81.2021 16° North  Level Estimated

Login

Don't have an account? Register now (free) for customized features, flight alerts, and more!